Sds Green — ICOK — position and weather

sailwx.info

Track history (hours):
 
Tides and Currents Weather Stations Pressure Air Temp Water Temp Dewpoint Dewpoint Depression Visibility Wind Speed Wind Dir Waves Ship Positions

Sds Green

Last reported at 2017-Sep-22 01:59 UTC. Time now 2017-Sep-23 18:34 UTC.
Position N 40°27' E 017°11'.

Length 108 m; draft 4.8 m.

Type: Cargo ship. MMSI: 247292200.

Date/timePositionNaut miles runAvg speedWind from/ knotsBaromVisibWave heightAir tempDewpointWater temp
2017-Sep-22 01:59N 40°27' E 017°11'0 0.0
2017-Sep-22 01:29N 40°27' E 017°11'0 0.0
2017-Sep-22 00:59N 40°27' E 017°11'0 0.0
2017-Sep-22 00:29N 40°27' E 017°11'0 0.0
2017-Sep-21 23:59N 40°27' E 017°11'0 0.0
2017-Sep-21 23:29N 40°27' E 017°11'0 0.1
2017-Sep-21 23:01N 40°27' E 017°11'4 7.5
2017-Sep-21 22:31N 40°24' E 017°08'3 5.7
2017-Sep-21 22:00N 40°22' E 017°08'612.3
2017-Sep-21 21:30N 40°15' E 017°08'612.7
2017-Sep-21 21:00N 40°09' E 017°09'612.6
2017-Sep-21 20:30N 40°03' E 017°10'713.0
2017-Sep-21 20:00N 39°56' E 017°11'612.7
2017-Sep-21 19:30N 39°50' E 017°11'712.3
2017-Sep-21 18:55N 39°43' E 017°12'912.3
2017-Sep-21 18:11N 39°34' E 017°14'11711.6
2017-Sep-21 08:04N 37°52' E 015°60'312.5
2017-Sep-21 07:48N 37°52' E 015°56'412.6
2017-Sep-21 07:31N 37°52' E 015°51'612.3
2017-Sep-21 07:00N 37°53' E 015°43'612.7
2017-Sep-21 06:30N 37°57' E 015°37'611.4
2017-Sep-21 06:00N 38°02' E 015°34'713.4
2017-Sep-21 05:30N 38°09' E 015°35'611.4
2017-Sep-21 05:01N 38°14' E 015°37'4 8.8
2017-Sep-21 04:30N 38°19' E 015°39'713.3
2017-Sep-21 04:00N 38°25' E 015°37'613.0
2017-Sep-21 03:31N 38°31' E 015°34'712.9
2017-Sep-21 03:00N 38°37' E 015°31'612.9
2017-Sep-21 02:30N 38°43' E 015°28'612.6
2017-Sep-21 02:00N 38°49' E 015°25'612.3
2017-Sep-21 01:30N 38°55' E 015°22'612.6
2017-Sep-21 01:00N 39°00' E 015°19'712.9
2017-Sep-21 00:30N 39°07' E 015°16'1913.0
2017-Sep-20 23:02N 39°24' E 015°08'013.3
2017-Sep-20 23:00N 39°25' E 015°08'2413.0
2017-Sep-20 21:09N 39°47' E 014°56'712.9
2017-Sep-20 20:37N 39°54' E 014°53'312.8
2017-Sep-20 20:23N 39°56' E 014°52'260 6.7
2017-Sep-19 05:36N 42°33' E 010°17'112.8
2017-Sep-19 05:30N 42°34' E 010°15'2912.1
2017-Sep-19 03:05N 43°01' E 009°60'114.0
2017-Sep-19 02:59N 43°02' E 009°60'713.8
2017-Sep-19 02:30N 43°09' E 009°59'713.6
2017-Sep-19 02:00N 43°15' E 009°54'713.2
2017-Sep-19 01:30N 43°19' E 009°48'713.0
2017-Sep-19 01:00N 43°24' E 009°41'713.0
2017-Sep-19 00:30N 43°28' E 009°34'713.2
2017-Sep-19 00:00N 43°33' E 009°28'713.2
2017-Sep-18 23:30N 43°37' E 009°21'713.1
2017-Sep-18 23:00N 43°42' E 009°14'612.6
2017-Sep-18 22:30N 43°46' E 009°08'612.2
2017-Sep-18 22:01N 43°50' E 009°02'611.9
2017-Sep-18 21:30N 43°55' E 008°57'612.0
2017-Sep-18 21:00N 43°60' E 008°52'612.2
2017-Sep-18 20:30N 44°05' E 008°47'612.2
2017-Sep-18 20:00N 44°09' E 008°41'612.2
2017-Sep-18 19:30N 44°14' E 008°36'612.4
2017-Sep-18 19:00N 44°19' E 008°31'1 1.5
2017-Sep-18 18:29N 44°19' E 008°30'0 0.0
2017-Sep-18 17:59N 44°19' E 008°30'0 0.0
2017-Sep-18 17:29N 44°19' E 008°30'0 0.0
2017-Sep-18 16:59N 44°19' E 008°30'0 0.0
2017-Sep-18 16:29N 44°19' E 008°30'0 0.0
2017-Sep-18 15:59N 44°19' E 008°30'0 0.0
2017-Sep-18 15:29N 44°19' E 008°30'0 0.0
2017-Sep-18 14:59N 44°19' E 008°30'0 0.0
2017-Sep-18 14:29N 44°19' E 008°30'0 0.0
2017-Sep-18 13:56N 44°19' E 008°30'0 0.0
2017-Sep-18 13:29N 44°19' E 008°30'0 0.0
2017-Sep-18 12:59N 44°19' E 008°30'0 0.0
2017-Sep-18 12:26N 44°19' E 008°30'0 0.0
2017-Sep-18 11:59N 44°19' E 008°30'0 0.0
2017-Sep-18 11:29N 44°19' E 008°30'0 0.0
2017-Sep-18 10:59N 44°19' E 008°30'0 0.0
2017-Sep-18 10:29N 44°19' E 008°30'0 0.0
2017-Sep-18 09:56N 44°19' E 008°30'0 0.0
2017-Sep-18 09:26N 44°19' E 008°30'0 0.0
2017-Sep-18 08:56N 44°19' E 008°30'0 0.0
2017-Sep-18 08:26N 44°19' E 008°30'0 0.0
2017-Sep-18 07:56N 44°19' E 008°30'0 0.0
2017-Sep-18 07:26N 44°19' E 008°30'0 0.0
2017-Sep-18 06:56N 44°19' E 008°30'0 0.0
2017-Sep-18 06:26N 44°19' E 008°30'0 0.0
2017-Sep-18 05:56N 44°19' E 008°30'0 0.0
2017-Sep-18 05:26N 44°19' E 008°30'0 0.0
2017-Sep-18 04:59N 44°19' E 008°30'0 0.0
2017-Sep-18 04:30N 44°19' E 008°30'1 1.0
2017-Sep-18 04:00N 44°19' E 008°30'1 2.7
2017-Sep-18 03:30N 44°18' E 008°30'0 0.1
2017-Sep-18 02:55N 44°18' E 008°30'0 0.0
2017-Sep-18 02:25N 44°18' E 008°30'0 0.2
2017-Sep-18 01:55N 44°18' E 008°29'0 0.1
2017-Sep-18 01:30N 44°18' E 008°29'0 0.0
2017-Sep-18 01:00N 44°18' E 008°29'0 0.1
2017-Sep-18 00:26N 44°18' E 008°29'0 0.1
2017-Sep-18 00:00N 44°18' E 008°29'0 0.1
2017-Sep-17 23:30N 44°18' E 008°29'0 0.0
2017-Sep-17 22:59N 44°18' E 008°29'0 0.0
2017-Sep-17 22:29N 44°18' E 008°29'0 0.1
2017-Sep-17 22:00N 44°18' E 008°29'0 0.0
2017-Sep-17 21:29N 44°18' E 008°29'0 0.0
2017-Sep-17 20:56N 44°18' E 008°29'0 0.0
2017-Sep-17 20:29N 44°18' E 008°29'0 0.0
2017-Sep-17 19:56N 44°18' E 008°29'0 0.0
2017-Sep-17 19:26N 44°18' E 008°29'0 0.0
2017-Sep-17 18:59N 44°18' E 008°29'0 0.0
2017-Sep-17 18:29N 44°18' E 008°29'0 0.0
2017-Sep-17 17:59N 44°18' E 008°29'0 0.0
2017-Sep-17 17:29N 44°18' E 008°29'0 0.4
2017-Sep-17 17:00N 44°18' E 008°29'3 6.8
2017-Sep-17 16:30N 44°14' E 008°30'510.8
2017-Sep-17 16:00N 44°09' E 008°29'611.5
2017-Sep-17 15:30N 44°04' E 008°26'611.2
2017-Sep-17 15:00N 43°59' E 008°23'6011.4
2017-Sep-17 09:46N 43°20' E 007°20'311.9
2017-Sep-17 09:31N 43°18' E 007°16'612.0
2017-Sep-17 09:00N 43°15' E 007°09'612.0
2017-Sep-17 08:30N 43°12' E 007°02'24712.0
2017-Sep-16 12:00N 41°11' E 002°12'612.2
2017-Sep-16 11:28N 41°07' E 002°06'612.1
2017-Sep-16 10:58N 41°02' E 001°60'612.0
2017-Sep-16 10:30N 40°59' E 001°54'611.8
2017-Sep-16 09:59N 40°55' E 001°48'611.8
2017-Sep-16 09:29N 40°51' E 001°42'113 2.6
2017-Sep-14 13:17N 39°39' W 000°13'2 7.3
2017-Sep-14 13:00N 39°37' W 000°11'1 1.2
2017-Sep-14 12:09N 39°37' W 000°10'0 0.0
2017-Sep-14 11:51N 39°37' W 000°10'0 0.0
2017-Sep-13 18:45N 39°37' W 000°10'0 0.0
2017-Sep-13 15:52N 39°37' W 000°10'3 6.6
2017-Sep-13 15:29N 39°39' W 000°07'911.9
2017-Sep-13 14:43N 39°45' E 000°02'612.4
2017-Sep-13 14:13N 39°48' E 000°09'312.3
2017-Sep-13 13:57N 39°50' E 000°12'912.4
2017-Sep-13 13:11N 39°56' E 000°22'612.3
2017-Sep-13 12:44N 39°59' E 000°28'312.3
2017-Sep-13 12:30N 40°00' E 000°31'612.4
2017-Sep-13 12:00N 40°03' E 000°38'712.4
2017-Sep-13 11:29N 40°07' E 000°45'612.3
2017-Sep-13 10:59N 40°09' E 000°53'612.1
2017-Sep-13 10:30N 40°12' E 000°59'612.0
2017-Sep-13 10:00N 40°15' E 001°06'612.9
2017-Sep-13 09:29N 40°18' E 001°14'612.8
2017-Sep-13 09:00N 40°21' E 001°21'612.2
2017-Sep-13 08:30N 40°27' E 001°22'713.6
2017-Sep-13 08:00N 40°33' E 001°17'713.2
2017-Sep-13 07:28N 40°39' E 001°13'2612.5
2017-Sep-13 05:25N 41°05' E 001°13'  
Track history (hours):
 
Tides and Currents Weather Stations Pressure Air Temp Water Temp Dewpoint Dewpoint Depression Visibility Wind Speed Wind Dir Waves Ship Positions

Sds Green

Last reported at 2017-Sep-22 01:59 UTC. Time now 2017-Sep-23 18:34 UTC.
Position N 40°27' E 017°11'.

Length 108 m; draft 4.8 m.

Type: Cargo ship. MMSI: 247292200.

Date/timePositionNaut miles runAvg speedWind from/ knotsBaromVisibWave heightAir tempDewpointWater temp
2017-Sep-22 01:59N 40°27' E 017°11'0 0.0
2017-Sep-22 01:29N 40°27' E 017°11'0 0.0
2017-Sep-22 00:59N 40°27' E 017°11'0 0.0
2017-Sep-22 00:29N 40°27' E 017°11'0 0.0
2017-Sep-21 23:59N 40°27' E 017°11'0 0.0
2017-Sep-21 23:29N 40°27' E 017°11'0 0.1
2017-Sep-21 23:01N 40°27' E 017°11'4 7.5
2017-Sep-21 22:31N 40°24' E 017°08'3 5.7
2017-Sep-21 22:00N 40°22' E 017°08'612.3
2017-Sep-21 21:30N 40°15' E 017°08'612.7
2017-Sep-21 21:00N 40°09' E 017°09'612.6
2017-Sep-21 20:30N 40°03' E 017°10'713.0
2017-Sep-21 20:00N 39°56' E 017°11'612.7
2017-Sep-21 19:30N 39°50' E 017°11'712.3
2017-Sep-21 18:55N 39°43' E 017°12'912.3
2017-Sep-21 18:11N 39°34' E 017°14'11711.6
2017-Sep-21 08:04N 37°52' E 015°60'312.5
2017-Sep-21 07:48N 37°52' E 015°56'412.6
2017-Sep-21 07:31N 37°52' E 015°51'612.3
2017-Sep-21 07:00N 37°53' E 015°43'612.7
2017-Sep-21 06:30N 37°57' E 015°37'611.4
2017-Sep-21 06:00N 38°02' E 015°34'713.4
2017-Sep-21 05:30N 38°09' E 015°35'611.4
2017-Sep-21 05:01N 38°14' E 015°37'4 8.8
2017-Sep-21 04:30N 38°19' E 015°39'713.3
2017-Sep-21 04:00N 38°25' E 015°37'613.0
2017-Sep-21 03:31N 38°31' E 015°34'712.9
2017-Sep-21 03:00N 38°37' E 015°31'612.9
2017-Sep-21 02:30N 38°43' E 015°28'612.6
2017-Sep-21 02:00N 38°49' E 015°25'612.3
2017-Sep-21 01:30N 38°55' E 015°22'612.6
2017-Sep-21 01:00N 39°00' E 015°19'712.9
2017-Sep-21 00:30N 39°07' E 015°16'1913.0
2017-Sep-20 23:02N 39°24' E 015°08'013.3
2017-Sep-20 23:00N 39°25' E 015°08'2413.0
2017-Sep-20 21:09N 39°47' E 014°56'712.9
2017-Sep-20 20:37N 39°54' E 014°53'312.8
2017-Sep-20 20:23N 39°56' E 014°52'260 6.7
2017-Sep-19 05:36N 42°33' E 010°17'112.8
2017-Sep-19 05:30N 42°34' E 010°15'2912.1
2017-Sep-19 03:05N 43°01' E 009°60'114.0
2017-Sep-19 02:59N 43°02' E 009°60'713.8
2017-Sep-19 02:30N 43°09' E 009°59'713.6
2017-Sep-19 02:00N 43°15' E 009°54'713.2
2017-Sep-19 01:30N 43°19' E 009°48'713.0
2017-Sep-19 01:00N 43°24' E 009°41'713.0
2017-Sep-19 00:30N 43°28' E 009°34'713.2
2017-Sep-19 00:00N 43°33' E 009°28'713.2
2017-Sep-18 23:30N 43°37' E 009°21'713.1
2017-Sep-18 23:00N 43°42' E 009°14'612.6
2017-Sep-18 22:30N 43°46' E 009°08'612.2
2017-Sep-18 22:01N 43°50' E 009°02'611.9
2017-Sep-18 21:30N 43°55' E 008°57'612.0
2017-Sep-18 21:00N 43°60' E 008°52'612.2
2017-Sep-18 20:30N 44°05' E 008°47'612.2
2017-Sep-18 20:00N 44°09' E 008°41'612.2
2017-Sep-18 19:30N 44°14' E 008°36'612.4
2017-Sep-18 19:00N 44°19' E 008°31'1 1.5
2017-Sep-18 18:29N 44°19' E 008°30'0 0.0
2017-Sep-18 17:59N 44°19' E 008°30'0 0.0
2017-Sep-18 17:29N 44°19' E 008°30'0 0.0
2017-Sep-18 16:59N 44°19' E 008°30'0 0.0
2017-Sep-18 16:29N 44°19' E 008°30'0 0.0
2017-Sep-18 15:59N 44°19' E 008°30'0 0.0
2017-Sep-18 15:29N 44°19' E 008°30'0 0.0
2017-Sep-18 14:59N 44°19' E 008°30'0 0.0
2017-Sep-18 14:29N 44°19' E 008°30'0 0.0
2017-Sep-18 13:56N 44°19' E 008°30'0 0.0
2017-Sep-18 13:29N 44°19' E 008°30'0 0.0
2017-Sep-18 12:59N 44°19' E 008°30'0 0.0
2017-Sep-18 12:26N 44°19' E 008°30'0 0.0
2017-Sep-18 11:59N 44°19' E 008°30'0 0.0
2017-Sep-18 11:29N 44°19' E 008°30'0 0.0
2017-Sep-18 10:59N 44°19' E 008°30'0 0.0
2017-Sep-18 10:29N 44°19' E 008°30'0 0.0
2017-Sep-18 09:56N 44°19' E 008°30'0 0.0
2017-Sep-18 09:26N 44°19' E 008°30'0 0.0
2017-Sep-18 08:56N 44°19' E 008°30'0 0.0
2017-Sep-18 08:26N 44°19' E 008°30'0 0.0
2017-Sep-18 07:56N 44°19' E 008°30'0 0.0
2017-Sep-18 07:26N 44°19' E 008°30'0 0.0
2017-Sep-18 06:56N 44°19' E 008°30'0 0.0
2017-Sep-18 06:26N 44°19' E 008°30'0 0.0
2017-Sep-18 05:56N 44°19' E 008°30'0 0.0
2017-Sep-18 05:26N 44°19' E 008°30'0 0.0
2017-Sep-18 04:59N 44°19' E 008°30'0 0.0
2017-Sep-18 04:30N 44°19' E 008°30'1 1.0
2017-Sep-18 04:00N 44°19' E 008°30'1 2.7
2017-Sep-18 03:30N 44°18' E 008°30'0 0.1
2017-Sep-18 02:55N 44°18' E 008°30'0 0.0
2017-Sep-18 02:25N 44°18' E 008°30'0 0.2
2017-Sep-18 01:55N 44°18' E 008°29'0 0.1
2017-Sep-18 01:30N 44°18' E 008°29'0 0.0
2017-Sep-18 01:00N 44°18' E 008°29'0 0.1
2017-Sep-18 00:26N 44°18' E 008°29'0 0.1
2017-Sep-18 00:00N 44°18' E 008°29'0 0.1
2017-Sep-17 23:30N 44°18' E 008°29'0 0.0
2017-Sep-17 22:59N 44°18' E 008°29'0 0.0
2017-Sep-17 22:29N 44°18' E 008°29'0 0.1
2017-Sep-17 22:00N 44°18' E 008°29'0 0.0
2017-Sep-17 21:29N 44°18' E 008°29'0 0.0
2017-Sep-17 20:56N 44°18' E 008°29'0 0.0
2017-Sep-17 20:29N 44°18' E 008°29'0 0.0
2017-Sep-17 19:56N 44°18' E 008°29'0 0.0
2017-Sep-17 19:26N 44°18' E 008°29'0 0.0
2017-Sep-17 18:59N 44°18' E 008°29'0 0.0
2017-Sep-17 18:29N 44°18' E 008°29'0 0.0
2017-Sep-17 17:59N 44°18' E 008°29'0 0.0
2017-Sep-17 17:29N 44°18' E 008°29'0 0.4
2017-Sep-17 17:00N 44°18' E 008°29'3 6.8
2017-Sep-17 16:30N 44°14' E 008°30'510.8
2017-Sep-17 16:00N 44°09' E 008°29'611.5
2017-Sep-17 15:30N 44°04' E 008°26'611.2
2017-Sep-17 15:00N 43°59' E 008°23'6011.4
2017-Sep-17 09:46N 43°20' E 007°20'311.9
2017-Sep-17 09:31N 43°18' E 007°16'612.0
2017-Sep-17 09:00N 43°15' E 007°09'612.0
2017-Sep-17 08:30N 43°12' E 007°02'24712.0
2017-Sep-16 12:00N 41°11' E 002°12'612.2
2017-Sep-16 11:28N 41°07' E 002°06'612.1
2017-Sep-16 10:58N 41°02' E 001°60'612.0
2017-Sep-16 10:30N 40°59' E 001°54'611.8
2017-Sep-16 09:59N 40°55' E 001°48'611.8
2017-Sep-16 09:29N 40°51' E 001°42'113 2.6
2017-Sep-14 13:17N 39°39' W 000°13'2 7.3
2017-Sep-14 13:00N 39°37' W 000°11'1 1.2
2017-Sep-14 12:09N 39°37' W 000°10'0 0.0
2017-Sep-14 11:51N 39°37' W 000°10'0 0.0
2017-Sep-13 18:45N 39°37' W 000°10'0 0.0
2017-Sep-13 15:52N 39°37' W 000°10'3 6.6
2017-Sep-13 15:29N 39°39' W 000°07'911.9
2017-Sep-13 14:43N 39°45' E 000°02'612.4
2017-Sep-13 14:13N 39°48' E 000°09'312.3
2017-Sep-13 13:57N 39°50' E 000°12'912.4
2017-Sep-13 13:11N 39°56' E 000°22'612.3
2017-Sep-13 12:44N 39°59' E 000°28'312.3
2017-Sep-13 12:30N 40°00' E 000°31'612.4
2017-Sep-13 12:00N 40°03' E 000°38'712.4
2017-Sep-13 11:29N 40°07' E 000°45'612.3
2017-Sep-13 10:59N 40°09' E 000°53'612.1
2017-Sep-13 10:30N 40°12' E 000°59'612.0
2017-Sep-13 10:00N 40°15' E 001°06'612.9
2017-Sep-13 09:29N 40°18' E 001°14'612.8
2017-Sep-13 09:00N 40°21' E 001°21'612.2
2017-Sep-13 08:30N 40°27' E 001°22'713.6
2017-Sep-13 08:00N 40°33' E 001°17'713.2
2017-Sep-13 07:28N 40°39' E 001°13'2612.5
2017-Sep-13 05:25N 41°05' E 001°13'  

Dump ship's entire track history